Time;durP1;ratioP1;P1;durP2;ratioP2;P2;SDS_P1;SDS_P2;PMS_P1;PMS_P2;Temp;Humidity;BMP_temperature;BMP_pressure;BME280_temperature;BME280_humidity;BME280_pressure;Samples;Min_cycle;Max_cycle;Signal;HPM_P1;HPM_P2
2022/02/05 00:00:12;;;;;;;6.95;1.35;;;4.60;99.90;;;;;;5065540;28;20379;-59
2022/02/05 00:02:24;;;;;;;8.45;1.90;;;4.60;99.90;;;;;;5060054;28;20029;-59
2022/02/05 00:04:50;;;;;;;9.68;1.65;;;4.70;99.90;;;;;;5068176;28;20020;-59
2022/02/05 00:07:16;;;;;;;4.07;1.42;;;4.70;99.90;;;;;;5059888;28;20064;-59
2022/02/05 00:10:23;;;;;;;10.73;1.35;;;4.70;99.90;;;;;;5062636;28;20045;-59
2022/02/05 00:12:55;;;;;;;6.90;1.30;;;4.70;99.90;;;;;;5064854;28;20047;-60
2022/02/05 00:15:33;;;;;;;6.38;1.63;;;4.70;99.90;;;;;;5064296;28;20048;-59
2022/02/05 00:40:00;;;;;;;7.22;1.55;;;4.90;99.90;;;;;;5073624;28;20051;-59
2022/02/05 00:42:30;;;;;;;9.88;1.63;;;4.90;99.90;;;;;;5070751;28;20043;-59
2022/02/05 00:44:56;;;;;;;;;;;4.90;99.90;;;;;;5074833;28;20484;-59
2022/02/05 00:47:21;;;;;;;6.38;1.15;;;4.80;99.90;;;;;;5074288;28;20007;-59
2022/02/05 00:49:51;;;;;;;6.40;1.05;;;4.80;99.90;;;;;;5071011;28;20059;-59
2022/02/05 00:52:19;;;;;;;;;;;4.80;99.90;;;;;;5069658;28;20396;-59
2022/02/05 00:54:49;;;;;;;7.15;1.15;;;4.80;99.90;;;;;;5074081;28;19950;-59
2022/02/05 00:57:30;;;;;;;;;;;4.70;99.90;;;;;;5070402;28;20039;-59
2022/02/05 00:59:56;;;;;;;6.78;1.20;;;4.70;99.90;;;;;;5078457;28;20330;-59
2022/02/05 01:02:23;;;;;;;8.30;0.90;;;4.70;99.90;;;;;;5069782;28;20032;-59
2022/02/05 01:04:48;;;;;;;5.95;1.10;;;4.70;99.90;;;;;;5071140;28;20070;-59
2022/02/05 01:07:14;;;;;;;8.20;1.10;;;4.70;99.90;;;;;;5067162;28;20020;-59
2022/02/05 01:09:42;;;;;;;6.85;0.70;;;4.70;99.90;;;;;;5067691;28;20039;-59
2022/02/05 01:12:07;;;;;;;6.40;0.98;;;4.70;99.90;;;;;;5070717;28;20028;-59
2022/02/05 01:14:43;;;;;;;6.75;1.00;;;4.70;99.90;;;;;;5067368;28;20101;-59
2022/02/05 01:17:10;;;;;;;8.82;1.15;;;4.70;99.90;;;;;;5072965;28;20672;-59
2022/02/05 01:22:04;;;;;;;3.20;0.70;;;4.70;99.90;;;;;;5070761;28;20012;-59
2022/02/05 01:24:30;;;;;;;8.23;1.60;;;4.70;99.90;;;;;;5070270;28;20090;-59
2022/02/05 01:27:10;;;;;;;8.40;1.00;;;4.60;99.90;;;;;;5067753;28;20009;-59
2022/02/05 01:30:04;;;;;;;5.05;0.93;;;4.60;99.90;;;;;;5068482;28;20020;-59
2022/02/05 01:32:33;;;;;;;4.93;1.00;;;4.60;99.90;;;;;;5067565;28;20488;-59
2022/02/05 01:54:12;;;;;;;3.67;0.75;;;4.70;99.90;;;;;;5056008;28;20036;-59
2022/02/05 02:09:43;;;;;;;10.65;1.05;;;4.60;99.90;;;;;;5066954;28;20113;-59
2022/02/05 02:12:16;;;;;;;9.15;1.25;;;4.60;99.90;;;;;;5069410;28;20507;-59
2022/02/05 02:22:21;;;;;;;5.85;1.30;;;4.60;99.90;;;;;;5066910;28;20408;-59
2022/02/05 02:25:01;;;;;;;7.05;1.15;;;4.70;99.90;;;;;;5069593;28;20364;-59
2022/02/05 02:32:30;;;;;;;8.82;1.08;;;4.70;99.90;;;;;;5063735;28;20081;-59
2022/02/05 02:35:02;;;;;;;5.50;1.23;;;4.70;99.90;;;;;;5072810;28;20021;-59
2022/02/05 02:37:37;;;;;;;10.80;1.08;;;4.70;99.90;;;;;;5079348;28;20032;-59
2022/02/05 02:42:34;;;;;;;10.02;0.93;;;4.70;99.90;;;;;;5061277;28;20044;-59
2022/02/05 02:45:00;;;;;;;8.80;1.90;;;4.70;99.90;;;;;;5062233;28;20021;-59
2022/02/05 02:47:25;;;;;;;7.18;1.05;;;4.70;99.90;;;;;;5066232;28;20017;-59
2022/02/05 02:50:09;;;;;;;7.10;1.10;;;4.70;99.90;;;;;;5079854;28;20032;-59
2022/02/05 02:58:25;;;;;;;9.75;1.15;;;4.70;99.90;;;;;;5001448;28;20038;-59
2022/02/05 03:00:55;;;;;;;10.27;1.00;;;4.70;99.90;;;;;;5054537;28;20033;-59
2022/02/05 03:03:21;;;;;;;8.55;0.82;;;4.70;99.90;;;;;;5061855;28;20098;-59
2022/02/05 03:05:46;;;;;;;7.18;1.50;;;4.80;99.90;;;;;;5064697;28;20017;-59
2022/02/05 03:08:12;;;;;;;7.32;0.90;;;4.80;99.90;;;;;;5065761;28;20039;-59
2022/02/05 03:10:38;;;;;;;10.65;1.98;;;4.80;99.90;;;;;;5060952;28;20026;-59
2022/02/05 03:13:03;;;;;;;7.38;1.05;;;4.70;99.90;;;;;;5067372;28;20029;-59
2022/02/05 03:15:37;;;;;;;7.72;0.88;;;4.70;99.90;;;;;;5060236;28;20404;-59
2022/02/05 03:18:15;;;;;;;8.50;1.10;;;4.70;99.90;;;;;;5059205;28;20028;-59
2022/02/05 03:20:40;;;;;;;9.40;1.63;;;4.70;99.90;;;;;;5061602;28;20029;-59
2022/02/05 03:23:07;;;;;;;8.70;1.50;;;4.70;99.90;;;;;;5060230;28;20653;-59
2022/02/05 03:25:33;;;;;;;7.93;1.02;;;4.70;99.90;;;;;;5060320;28;20519;-59
2022/02/05 03:28:00;;;;;;;9.02;1.00;;;4.70;99.90;;;;;;5064533;28;20035;-59
2022/02/05 03:30:26;;;;;;;5.30;1.30;;;4.70;99.90;;;;;;5063573;28;20119;-59
2022/02/05 03:32:52;;;;;;;8.07;1.10;;;4.70;99.90;;;;;;5065559;28;20067;-59
2022/02/05 03:35:18;;;;;;;6.18;0.88;;;4.70;99.90;;;;;;5062983;28;20048;-59
2022/02/05 03:37:43;;;;;;;7.65;1.00;;;4.70;99.90;;;;;;5062898;28;20029;-59
2022/02/05 03:40:10;;;;;;;7.50;1.25;;;4.60;99.90;;;;;;5055944;28;20024;-59
2022/02/05 03:42:35;;;;;;;5.32;0.82;;;4.60;99.90;;;;;;5067243;28;20111;-59
2022/02/05 03:45:03;;;;;;;15.02;1.35;;;4.60;99.90;;;;;;5063302;28;20103;-58
2022/02/05 03:47:33;;;;;;;6.43;0.68;;;4.60;99.90;;;;;;5065694;28;20302;-59
2022/02/05 03:50:00;;;;;;;9.60;1.38;;;4.60;99.90;;;;;;5056715;28;20021;-59
2022/02/05 03:52:26;;;;;;;10.05;2.08;;;4.60;99.90;;;;;;5064699;28;20380;-59
2022/02/05 03:54:51;;;;;;;10.18;1.40;;;4.60;99.90;;;;;;5068010;28;20499;-59
2022/02/05 03:57:17;;;;;;;4.28;1.00;;;4.60;99.90;;;;;;5068345;28;20027;-59
2022/02/05 03:59:42;;;;;;;8.88;2.00;;;4.60;99.90;;;;;;5066519;28;20476;-59
2022/02/05 04:02:08;;;;;;;5.82;1.10;;;4.60;99.90;;;;;;5062652;28;20314;-59
2022/02/05 04:04:34;;;;;;;8.10;1.45;;;4.50;99.90;;;;;;5066718;28;20580;-59
2022/02/05 04:07:01;;;;;;;9.27;1.20;;;4.50;99.90;;;;;;5061135;28;20013;-59
2022/02/05 04:09:32;;;;;;;7.07;0.93;;;4.50;99.90;;;;;;5069141;28;20028;-59
2022/02/05 04:17:27;;;;;;;8.75;1.08;;;4.50;99.90;;;;;;5061745;28;20039;-59
2022/02/05 04:19:52;;;;;;;8.32;1.55;;;4.60;99.90;;;;;;5070037;28;20028;-59
2022/02/05 04:22:18;;;;;;;10.55;1.42;;;4.60;99.90;;;;;;5066353;28;20609;-59
2022/02/05 04:24:44;;;;;;;7.45;1.42;;;4.50;99.90;;;;;;5068866;28;20417;-59
2022/02/05 04:27:10;;;;;;;9.60;0.95;;;4.50;99.90;;;;;;5071561;28;20063;-59
2022/02/05 04:29:36;;;;;;;6.13;1.08;;;4.50;99.90;;;;;;5066060;28;20408;-59
2022/02/05 04:32:03;;;;;;;6.97;1.17;;;4.50;99.90;;;;;;5068320;28;20028;-59
2022/02/05 04:34:29;;;;;;;10.93;1.33;;;4.50;99.90;;;;;;5068116;28;20020;-59
2022/02/05 04:36:55;;;;;;;5.18;0.88;;;4.50;99.90;;;;;;5066124;28;20079;-59
2022/02/05 04:39:22;;;;;;;6.30;0.80;;;4.50;99.90;;;;;;5068813;28;20035;-59
2022/02/05 04:41:57;;;;;;;9.88;1.05;;;4.50;99.90;;;;;;5068939;28;20170;-59
2022/02/05 04:50:13;;;;;;;8.30;1.90;;;4.40;99.90;;;;;;5062597;28;20027;-59
2022/02/05 05:01:12;;;;;;;5.85;1.00;;;4.40;99.90;;;;;;5020531;28;20084;-59
2022/02/05 05:11:25;;;;;;;7.72;1.13;;;4.50;99.90;;;;;;5069942;28;20451;-59
2022/02/05 05:21:59;;;;;;;6.97;1.33;;;4.50;99.90;;;;;;5064736;28;20058;-59
2022/02/05 05:24:25;;;;;;;11.70;1.67;;;4.50;99.90;;;;;;5067247;28;20048;-59
2022/02/05 05:26:51;;;;;;;7.38;1.30;;;4.50;99.90;;;;;;5067216;28;20563;-59
2022/02/05 05:29:17;;;;;;;6.80;1.20;;;4.60;99.90;;;;;;5067809;28;20077;-59
2022/02/05 05:31:42;;;;;;;7.35;1.30;;;4.60;99.90;;;;;;5066125;28;20024;-59
2022/02/05 05:34:08;;;;;;;12.43;2.38;;;4.60;99.90;;;;;;5064395;28;20117;-59
2022/02/05 05:36:34;;;;;;;7.85;1.45;;;4.60;99.90;;;;;;5067493;28;20029;-59
2022/02/05 05:39:02;;;;;;;10.55;1.17;;;4.60;99.90;;;;;;5067662;28;20028;-59
2022/02/05 05:41:29;;;;;;;7.68;1.23;;;4.60;99.90;;;;;;5070308;28;20460;-59
2022/02/05 05:46:53;;;;;;;10.90;1.60;;;4.70;99.90;;;;;;5067500;28;20025;-59
2022/02/05 05:49:22;;;;;;;7.47;1.77;;;4.70;99.90;;;;;;5065601;28;20060;-59
2022/02/05 05:51:48;;;;;;;13.00;2.50;;;4.70;99.90;;;;;;5067546;28;20340;-59
2022/02/05 05:54:15;;;;;;;12.63;2.28;;;4.60;99.90;;;;;;5070183;28;20024;-59
2022/02/05 05:56:42;;;;;;;8.38;2.50;;;4.60;99.90;;;;;;5063080;28;20107;-59
2022/02/05 05:59:08;;;;;;;7.43;2.78;;;4.60;99.90;;;;;;5063692;28;20568;-59
2022/02/05 06:01:36;;;;;;;13.15;2.50;;;4.60;99.90;;;;;;5072191;28;20040;-59
2022/02/05 06:04:02;;;;;;;11.02;2.30;;;4.50;99.90;;;;;;5071934;28;20028;-59
2022/02/05 06:06:27;;;;;;;9.48;2.60;;;4.50;99.90;;;;;;5070135;28;20032;-59
2022/02/05 06:08:53;;;;;;;13.07;3.20;;;4.40;99.90;;;;;;5072482;28;20032;-59
2022/02/05 06:11:18;;;;;;;11.27;2.63;;;4.40;99.90;;;;;;5072331;28;20134;-59
2022/02/05 06:13:44;;;;;;;9.77;2.90;;;4.30;99.90;;;;;;5073475;28;20080;-59
2022/02/05 06:16:14;;;;;;;8.10;2.80;;;4.30;99.90;;;;;;5073544;28;20029;-59
2022/02/05 06:18:40;;;;;;;9.73;3.47;;;4.30;99.90;;;;;;5073619;28;20028;-59
2022/02/05 06:21:06;;;;;;;9.48;3.78;;;4.30;99.90;;;;;;5073599;28;20040;-59
2022/02/05 06:23:32;;;;;;;9.85;3.45;;;4.20;99.90;;;;;;5073591;28;20029;-58
2022/02/05 06:25:58;;;;;;;8.13;2.75;;;4.20;99.90;;;;;;5072649;28;20522;-59
2022/02/05 06:28:23;;;;;;;12.23;4.20;;;4.20;99.90;;;;;;5073145;28;20385;-59
2022/02/05 06:30:49;;;;;;;11.70;3.97;;;4.20;99.90;;;;;;5073652;28;20054;-59
2022/02/05 06:33:14;;;;;;;10.32;4.18;;;4.10;99.90;;;;;;5073314;28;20540;-58
2022/02/05 06:35:40;;;;;;;9.88;3.70;;;4.00;99.90;;;;;;5073338;28;20024;-59
2022/02/05 06:38:06;;;;;;;10.57;4.07;;;4.00;99.90;;;;;;5073100;28;20047;-59
2022/02/05 06:40:32;;;;;;;13.30;4.13;;;4.00;99.90;;;;;;5073209;28;20029;-59
2022/02/05 06:42:58;;;;;;;10.32;4.53;;;4.00;99.90;;;;;;5073061;28;20016;-59
2022/02/05 06:45:24;;;;;;;8.50;4.32;;;4.00;99.90;;;;;;5092145;28;20475;-59
2022/02/05 06:47:50;;;;;;;7.68;4.38;;;4.00;99.90;;;;;;5093429;28;20103;-59
2022/02/05 06:50:15;;;;;;;7.03;3.53;;;3.90;99.90;;;;;;5093330;28;20099;-58
2022/02/05 06:52:42;;;;;;;10.20;4.28;;;3.90;99.90;;;;;;5093231;28;20384;-59
2022/02/05 06:55:08;;;;;;;12.48;4.03;;;3.90;99.90;;;;;;5087165;28;20025;-59
2022/02/05 06:57:34;;;;;;;13.43;4.07;;;3.90;99.90;;;;;;5052463;28;20021;-59
2022/02/05 06:59:59;;;;;;;9.18;3.90;;;3.90;99.90;;;;;;5069343;28;20604;-59
2022/02/05 07:02:25;;;;;;;7.80;3.40;;;3.80;99.90;;;;;;5073169;28;20108;-59
2022/02/05 07:04:51;;;;;;;8.68;4.03;;;3.80;99.90;;;;;;5073007;28;20484;-59
2022/02/05 07:07:16;;;;;;;13.40;3.95;;;3.80;99.90;;;;;;5072805;28;20115;-59
2022/02/05 07:09:55;;;;;;;12.00;3.88;;;3.80;99.90;;;;;;5071896;28;20056;-59
2022/02/05 07:12:20;;;;;;;11.23;3.92;;;3.80;99.90;;;;;;5069367;28;20032;-59
2022/02/05 07:15:06;;;;;;;11.77;4.57;;;3.80;99.90;;;;;;5055721;28;20561;-59
2022/02/05 07:18:02;;;;;;;7.32;3.08;;;3.80;99.90;;;;;;5067361;28;20123;-59
2022/02/05 07:20:54;;;;;;;7.88;2.97;;;3.80;99.90;;;;;;5070981;28;20033;-59
2022/02/05 07:29:50;;;;;;;7.88;3.35;;;3.70;99.90;;;;;;5069453;28;20032;-59
2022/02/05 07:32:16;;;;;;;8.88;3.15;;;3.70;99.90;;;;;;5071724;28;20020;-59
2022/02/05 07:35:05;;;;;;;7.95;3.03;;;3.70;99.90;;;;;;5073190;28;20055;-59
2022/02/05 07:37:35;;;;;;;11.95;3.60;;;3.70;99.90;;;;;;5063149;28;20036;-59
2022/02/05 07:40:51;;;;;;;11.13;3.53;;;3.70;99.90;;;;;;5076565;28;20107;-59
2022/02/05 07:43:16;;;;;;;13.77;3.40;;;3.80;99.90;;;;;;5063962;28;20119;-59
2022/02/05 07:45:41;;;;;;;10.73;3.42;;;3.70;99.90;;;;;;5075347;28;20139;-59
2022/02/05 07:48:07;;;;;;;11.52;2.95;;;3.80;99.90;;;;;;5074025;28;20024;-59
2022/02/05 07:50:33;;;;;;;8.48;3.70;;;3.80;99.90;;;;;;5073451;28;20021;-59
2022/02/05 07:52:58;;;;;;;12.05;3.25;;;3.80;99.90;;;;;;5074670;28;20021;-59
2022/02/05 07:55:27;;;;;;;7.60;3.13;;;3.80;99.90;;;;;;5074741;28;20048;-59
2022/02/05 07:57:52;;;;;;;11.65;3.78;;;3.90;99.90;;;;;;5074650;28;20031;-59
2022/02/05 08:00:18;;;;;;;8.45;3.45;;;3.80;99.90;;;;;;5074051;28;20024;-59
2022/02/05 08:02:51;;;;;;;10.80;4.15;;;3.90;99.90;;;;;;5075132;28;20032;-58
2022/02/05 08:05:17;;;;;;;9.57;4.07;;;3.90;99.90;;;;;;5075479;28;20024;-59
2022/02/05 08:07:43;;;;;;;12.27;3.85;;;3.90;99.90;;;;;;5075582;28;20098;-59
2022/02/05 08:10:09;;;;;;;11.80;4.47;;;3.90;99.90;;;;;;5075717;28;20021;-59
2022/02/05 08:12:39;;;;;;;12.50;4.47;;;3.90;99.90;;;;;;5075473;28;20021;-59
2022/02/05 08:15:06;;;;;;;11.80;3.92;;;3.90;99.90;;;;;;5073309;28;20057;-59
2022/02/05 08:17:36;;;;;;;13.75;4.40;;;3.90;99.90;;;;;;5090843;28;20060;-60
2022/02/05 08:20:27;;;;;;;;;;;;;;;;;;;;;
2022/02/05 08:23:22;;;;;;;12.68;4.93;;;3.90;99.90;;;;;;5075668;28;20016;-60
2022/02/05 08:26:07;;;;;;;12.55;3.97;;;3.90;99.90;;;;;;5033167;28;20044;-60
2022/02/05 08:28:54;;;;;;;12.38;4.22;;;4.00;99.90;;;;;;5074073;28;20086;-60
2022/02/05 08:31:20;;;;;;;11.77;4.97;;;4.00;99.90;;;;;;5075492;28;20027;-60
2022/02/05 08:33:46;;;;;;;11.10;4.10;;;4.00;99.90;;;;;;5075361;28;20032;-60
2022/02/05 08:36:12;;;;;;;12.30;4.72;;;4.00;99.90;;;;;;5091062;28;20034;-60
2022/02/05 08:38:45;;;;;;;10.82;4.13;;;4.10;99.90;;;;;;5075615;28;20024;-60
2022/02/05 08:41:11;;;;;;;15.15;4.35;;;4.20;99.90;;;;;;5075373;28;20021;-60
2022/02/05 08:43:36;;;;;;;18.10;4.70;;;4.20;99.90;;;;;;5079549;28;20046;-60
2022/02/05 08:46:02;;;;;;;19.30;4.60;;;4.30;99.90;;;;;;5095473;28;20535;-60
2022/02/05 08:48:28;;;;;;;10.15;4.18;;;4.30;99.90;;;;;;5094745;28;20107;-60
2022/02/05 08:50:53;;;;;;;10.80;4.25;;;4.40;99.90;;;;;;5111316;28;20055;-60
2022/02/05 08:53:21;;;;;;;12.70;4.20;;;4.40;99.90;;;;;;5095826;28;20023;-60
2022/02/05 08:55:48;;;;;;;9.48;3.33;;;4.50;99.90;;;;;;5095688;28;20059;-60
2022/02/05 08:58:14;;;;;;;14.07;5.07;;;4.60;99.90;;;;;;5094121;28;20565;-60
2022/02/05 09:00:48;;;;;;;13.82;3.80;;;4.60;99.90;;;;;;5110944;28;20028;-60
2022/02/05 09:03:32;;;;;;;13.15;5.47;;;4.60;99.90;;;;;;5095352;28;20012;-60
2022/02/05 09:06:00;;;;;;;13.15;4.10;;;4.60;99.90;;;;;;5095362;28;20020;-60
2022/02/05 09:08:34;;;;;;;18.42;5.93;;;4.70;99.90;;;;;;5095031;28;20024;-61
2022/02/05 09:11:32;;;;;;;13.32;4.63;;;4.70;99.90;;;;;;5077977;28;20046;-60
2022/02/05 09:14:13;;;;;;;10.77;4.18;;;4.80;99.90;;;;;;5074809;28;20075;-60
2022/02/05 09:16:40;;;;;;;9.20;3.55;;;4.90;99.90;;;;;;5074906;28;20055;-60
2022/02/05 09:19:06;;;;;;;10.30;3.10;;;4.90;99.90;;;;;;5074697;28;20472;-60
2022/02/05 09:21:32;;;;;;;5.63;2.80;;;5.00;99.90;;;;;;5074705;28;20028;-60
2022/02/05 09:24:00;;;;;;;9.55;3.63;;;5.00;99.90;;;;;;5074701;28;20362;-60
2022/02/05 09:26:27;;;;;;;9.73;3.53;;;5.10;99.90;;;;;;5074684;28;20536;-60
2022/02/05 09:28:55;;;;;;;12.75;3.30;;;5.20;99.90;;;;;;5074731;28;20048;-60
2022/02/05 09:31:26;;;;;;;11.98;3.72;;;5.30;99.90;;;;;;5074517;28;20016;-60
2022/02/05 09:34:05;;;;;;;9.98;3.30;;;5.30;99.90;;;;;;5074322;28;20488;-60
2022/02/05 09:36:32;;;;;;;9.75;3.20;;;5.40;99.90;;;;;;5074664;28;20037;-60
2022/02/05 09:38:58;;;;;;;11.38;3.88;;;5.40;99.90;;;;;;5074298;28;20064;-60
2022/02/05 09:41:26;;;;;;;8.95;3.58;;;5.50;99.90;;;;;;5074381;28;20055;-60
2022/02/05 09:43:52;;;;;;;7.85;2.47;;;5.60;99.90;;;;;;5080615;28;20149;-60
2022/02/05 09:46:20;;;;;;;8.63;2.90;;;5.70;99.90;;;;;;5094404;28;20107;-60
2022/02/05 09:48:48;;;;;;;13.25;2.88;;;5.80;99.90;;;;;;5094475;28;20039;-60
2022/02/05 09:51:28;;;;;;;10.43;2.45;;;5.80;99.90;;;;;;5094421;28;20023;-60
2022/02/05 09:53:56;;;;;;;12.15;2.60;;;6.00;99.90;;;;;;5094543;28;20031;-60
2022/02/05 09:56:33;;;;;;;8.65;2.20;;;6.00;99.90;;;;;;5094367;28;20103;-60
2022/02/05 09:59:02;;;;;;;10.52;2.53;;;6.10;99.90;;;;;;5093957;28;20111;-60
2022/02/05 10:01:32;;;;;;;9.20;2.70;;;6.20;99.90;;;;;;5094366;28;20039;-60
2022/02/05 10:03:58;;;;;;;8.98;1.90;;;6.20;99.90;;;;;;5094015;28;20044;-60
2022/02/05 10:06:32;;;;;;;6.65;2.22;;;6.30;99.90;;;;;;5094175;28;20028;-60
2022/02/05 10:09:08;;;;;;;8.20;2.22;;;6.50;99.90;;;;;;5093936;28;20031;-60
2022/02/05 10:11:59;;;;;;;9.00;2.28;;;6.60;99.90;;;;;;5073735;28;20029;-60
2022/02/05 10:14:29;;;;;;;10.68;1.77;;;6.80;99.90;;;;;;5073541;28;20071;-60
2022/02/05 10:17:00;;;;;;;7.95;1.98;;;7.00;99.90;;;;;;5073833;28;20033;-60
2022/02/05 10:19:49;;;;;;;8.35;1.85;;;7.20;99.90;;;;;;5072383;28;20499;-60
2022/02/05 10:22:15;;;;;;;6.70;2.05;;;7.70;99.90;;;;;;5073546;28;20044;-58
2022/02/05 10:24:55;;;;;;;11.77;1.50;;;9.20;99.90;;;;;;5073611;28;20464;-58
2022/02/05 10:27:28;;;;;;;7.03;1.75;;;11.00;96.70;;;;;;5073483;28;20511;-58
2022/02/05 10:30:20;;;;;;;10.85;1.58;;;12.40;93.20;;;;;;5073546;28;20028;-58
2022/02/05 10:32:50;;;;;;;7.95;1.60;;;13.10;89.40;;;;;;5073404;28;20016;-59
2022/02/05 10:35:39;;;;;;;4.20;1.30;;;13.80;82.30;;;;;;5088946;28;20039;-59
2022/02/05 10:40:45;;;;;;;8.43;1.60;;;14.80;75.50;;;;;;5073255;28;20087;-59
2022/02/05 10:43:12;;;;;;;6.28;1.35;;;14.90;72.70;;;;;;5073642;28;20487;-59
2022/02/05 10:45:46;;;;;;;6.28;1.85;;;15.00;71.30;;;;;;5093653;28;20515;-59
2022/02/05 10:48:17;;;;;;;5.60;1.40;;;15.50;69.60;;;;;;5093158;28;20036;-59
2022/02/05 10:50:43;;;;;;;7.78;1.85;;;16.50;67.10;;;;;;5093413;28;20028;-59
2022/02/05 10:53:19;;;;;;;10.32;2.33;;;16.70;63.90;;;;;;5093155;28;20028;-59
2022/02/05 10:55:55;;;;;;;7.40;1.50;;;16.40;61.90;;;;;;5093318;28;20380;-59
2022/02/05 10:58:39;;;;;;;4.15;1.60;;;15.80;63.00;;;;;;5093127;28;20482;-59
2022/02/05 11:05:15;;;;;;;7.93;1.98;;;14.50;66.20;;;;;;5093211;28;20051;-59
2022/02/05 11:07:13;;;;;;;7.82;1.77;;;15.10;67.10;;;;;;5092954;28;20024;-59
2022/02/05 11:09:41;;;;;;;9.27;2.25;;;14.70;65.20;;;;;;5087176;28;20013;-59
2022/02/05 11:15:09;;;;;;;8.35;1.98;;;13.50;68.00;;;;;;5072755;28;20484;-59
2022/02/05 11:20:21;;;;;;;8.50;1.80;;;12.70;69.30;;;;;;5072699;28;20032;-58
2022/02/05 11:23:09;;;;;;;10.93;1.70;;;12.50;70.30;;;;;;5072812;28;20052;-59
2022/02/05 11:25:40;;;;;;;8.20;2.20;;;12.40;70.30;;;;;;5072741;28;20510;-59
2022/02/05 11:28:10;;;;;;;7.53;1.95;;;12.20;70.70;;;;;;5071366;28;20438;-59
2022/02/05 11:30:48;;;;;;;9.18;1.45;;;12.00;70.90;;;;;;5072598;28;20020;-59
2022/02/05 11:33:30;;;;;;;4.80;1.58;;;11.80;71.50;;;;;;5072592;28;20104;-58
2022/02/05 11:38:43;;;;;;;9.10;1.75;;;11.30;74.30;;;;;;5072896;28;20034;-58
2022/02/05 11:41:32;;;;;;;5.75;1.80;;;12.00;73.70;;;;;;5071130;28;20036;-60
2022/02/05 11:44:15;;;;;;;9.60;1.40;;;13.00;71.40;;;;;;5079891;28;20062;-59
2022/02/05 11:46:42;;;;;;;5.75;1.50;;;13.80;69.70;;;;;;5092747;28;20031;-59
2022/02/05 11:49:15;;;;;;;4.50;1.30;;;14.90;67.50;;;;;;5092494;28;20357;-59
2022/02/05 11:51:45;;;;;;;6.13;1.40;;;15.80;63.70;;;;;;5092665;28;20020;-59
2022/02/05 11:54:26;;;;;;;7.50;1.85;;;16.00;61.60;;;;;;5092534;28;20031;-59
2022/02/05 11:57:10;;;;;;;6.90;1.98;;;16.30;61.90;;;;;;5092645;28;20034;-59
2022/02/05 11:59:59;;;;;;;6.30;1.30;;;17.60;61.40;;;;;;5092396;28;20052;-60
2022/02/05 12:02:38;;;;;;;5.88;1.10;;;18.50;57.90;;;;;;5092863;28;20024;-59
2022/02/05 12:05:23;;;;;;;6.05;2.13;;;18.40;55.30;;;;;;5092330;28;20027;-59
2022/02/05 12:08:04;;;;;;;5.80;1.17;;;18.50;55.30;;;;;;5092674;28;20095;-60
2022/02/05 12:10:48;;;;;;;6.63;1.48;;;19.50;53.00;;;;;;5079501;28;20373;-59
2022/02/05 12:13:24;;;;;;;4.82;1.10;;;20.00;51.80;;;;;;5072227;28;20063;-60
2022/02/05 12:15:55;;;;;;;5.85;1.20;;;20.90;50.10;;;;;;5072065;28;20522;-59
2022/02/05 12:18:36;;;;;;;4.32;1.15;;;21.80;48.40;;;;;;5070790;28;20040;-59
2022/02/05 12:26:46;;;;;;;7.18;1.58;;;23.90;45.00;;;;;;5076048;28;20112;-61
2022/02/05 12:29:25;;;;;;;;;;;23.30;43.30;;;;;;5074879;28;20024;-60
2022/02/05 12:31:52;;;;;;;6.50;1.75;;;21.80;42.50;;;;;;5091480;28;20310;-60
2022/02/05 12:34:18;;;;;;;4.93;1.58;;;20.20;44.60;;;;;;5075603;28;20032;-60
2022/02/05 12:36:49;;;;;;;7.13;1.85;;;18.60;47.50;;;;;;5075634;28;20031;-60
2022/02/05 12:39:16;;;;;;;7.32;1.10;;;17.20;50.60;;;;;;5075440;28;20028;-60
2022/02/05 12:42:07;;;;;;;8.90;1.48;;;16.10;51.70;;;;;;5075577;28;20025;-60
2022/02/05 12:44:45;;;;;;;4.32;0.95;;;15.50;52.80;;;;;;5084940;28;20082;-60
2022/02/05 12:47:27;;;;;;;6.72;1.20;;;15.00;54.30;;;;;;5095726;28;20026;-59
2022/02/05 12:50:08;;;;;;;7.50;1.33;;;14.60;54.90;;;;;;5095649;28;20560;-59
2022/02/05 12:52:41;;;;;;;4.38;1.20;;;14.40;55.30;;;;;;5095596;28;20491;-60
2022/02/05 12:55:13;;;;;;;5.30;1.10;;;14.10;56.20;;;;;;5095434;28;20051;-60
2022/02/05 12:57:44;;;;;;;7.93;0.85;;;15.20;57.40;;;;;;5095461;28;20028;-60
2022/02/05 13:00:11;;;;;;;6.25;1.23;;;17.20;54.20;;;;;;5080445;28;20032;-60
2022/02/05 13:02:37;;;;;;;8.55;1.45;;;18.70;50.30;;;;;;5074425;28;20024;-60
2022/02/05 13:05:03;;;;;;;7.25;1.42;;;19.80;48.90;;;;;;5073395;28;20019;-60
2022/02/05 13:07:29;;;;;;;5.22;1.50;;;20.40;46.00;;;;;;5073374;28;20021;-60
2022/02/05 13:09:57;;;;;;;6.63;1.63;;;20.20;45.60;;;;;;5073216;28;20077;-61
2022/02/05 13:12:34;;;;;;;5.00;1.35;;;20.00;46.10;;;;;;5073227;28;20012;-60
2022/02/05 13:15:05;;;;;;;7.00;1.63;;;20.80;45.90;;;;;;5085907;28;20051;-60
2022/02/05 13:18:03;;;;;;;6.00;1.10;;;20.90;43.80;;;;;;5073227;28;20052;-60
2022/02/05 13:26:39;;;;;;;5.75;1.40;;;22.70;42.20;;;;;;5073247;28;20051;-60
2022/02/05 13:29:19;;;;;;;7.80;1.80;;;22.30;41.60;;;;;;5073109;28;20024;-60
2022/02/05 13:34:31;;;;;;;5.88;1.55;;;22.30;41.30;;;;;;5072870;28;20078;-61
2022/02/05 13:39:59;;;;;;;5.22;1.15;;;20.30;42.20;;;;;;5071940;28;20035;-61
2022/02/05 13:42:30;;;;;;;5.47;1.25;;;19.00;45.00;;;;;;5071347;28;20107;-61
2022/02/05 13:45:11;;;;;;;6.25;1.63;;;18.90;46.90;;;;;;5071312;28;20369;-61
2022/02/05 13:47:45;;;;;;;5.75;1.10;;;19.20;45.00;;;;;;5068587;28;20027;-61
2022/02/05 13:50:26;;;;;;;6.75;2.28;;;19.90;44.90;;;;;;5072037;28;20035;-60
2022/02/05 13:53:03;;;;;;;4.90;1.35;;;20.30;43.50;;;;;;5070738;28;20786;-60
2022/02/05 13:55:36;;;;;;;4.65;1.50;;;20.20;43.50;;;;;;5071975;28;20436;-61
2022/02/05 13:58:09;;;;;;;4.95;1.35;;;20.10;42.80;;;;;;5072667;28;20116;-61
2022/02/05 14:01:15;;;;;;;5.55;1.30;;;20.00;43.10;;;;;;5079488;28;20073;-61
2022/02/05 14:03:41;;;;;;;5.13;1.35;;;20.20;42.70;;;;;;5093500;28;20028;-61
2022/02/05 14:06:12;;;;;;;4.35;1.42;;;19.80;43.10;;;;;;5093252;28;20476;-60
2022/02/05 14:08:44;;;;;;;3.17;1.27;;;19.70;43.70;;;;;;5069283;28;20099;-61
2022/02/05 14:11:12;;;;;;;6.45;1.63;;;19.50;43.70;;;;;;5071892;28;20025;-61
2022/02/05 14:13:38;;;;;;;4.78;1.38;;;18.30;44.00;;;;;;5084685;28;20528;-60
2022/02/05 14:16:05;;;;;;;6.70;1.38;;;17.10;46.10;;;;;;5071720;28;20048;-61
2022/02/05 14:18:54;;;;;;;3.58;1.02;;;16.00;48.50;;;;;;5072304;28;20033;-60
2022/02/05 14:21:44;;;;;;;5.40;1.30;;;15.40;50.60;;;;;;5071619;28;20024;-60
2022/02/05 14:24:28;;;;;;;5.07;1.40;;;14.60;52.40;;;;;;5071952;28;20037;-60
2022/02/05 14:27:11;;;;;;;5.63;1.70;;;14.10;53.20;;;;;;5070469;28;20078;-60
2022/02/05 14:29:58;;;;;;;5.90;1.70;;;13.70;54.20;;;;;;5068200;28;20025;-60
2022/02/05 14:32:42;;;;;;;7.63;1.77;;;13.40;55.10;;;;;;5068885;28;20024;-60
2022/02/05 14:40:28;;;;;;;3.08;1.20;;;14.40;54.30;;;;;;5068792;28;20028;-60
2022/02/05 14:42:54;;;;;;;7.72;1.60;;;13.90;54.70;;;;;;5062432;28;20017;-60
2022/02/05 14:45:20;;;;;;;7.40;1.35;;;13.80;55.70;;;;;;5070043;28;20039;-60
2022/02/05 14:47:45;;;;;;;7.90;1.58;;;13.40;56.10;;;;;;5069464;28;20074;-60
2022/02/05 14:50:12;;;;;;;6.22;1.27;;;13.00;57.50;;;;;;5082442;28;20033;-60
2022/02/05 14:52:38;;;;;;;5.03;1.42;;;12.60;58.70;;;;;;5067676;28;20047;-60
2022/02/05 14:55:04;;;;;;;7.07;1.65;;;12.00;59.90;;;;;;5069707;28;20056;-60
2022/02/05 14:57:29;;;;;;;6.68;1.38;;;11.70;61.60;;;;;;5062384;28;20477;-60
2022/02/05 14:59:55;;;;;;;8.98;1.60;;;11.50;62.20;;;;;;5068721;28;20074;-59
2022/02/05 15:02:20;;;;;;;7.65;1.38;;;11.40;63.10;;;;;;5068975;28;20358;-60
2022/02/05 15:04:47;;;;;;;6.22;1.30;;;11.30;63.90;;;;;;5069044;28;20490;-60
2022/02/05 15:07:16;;;;;;;9.05;1.70;;;11.20;64.60;;;;;;5068196;28;20036;-59
2022/02/05 15:09:41;;;;;;;5.50;1.30;;;11.00;64.80;;;;;;5067761;28;20086;-60
2022/02/05 15:12:08;;;;;;;7.70;1.42;;;10.80;65.80;;;;;;5068015;28;20029;-59
2022/02/05 15:14:33;;;;;;;6.70;1.58;;;10.60;66.80;;;;;;5062501;28;20128;-59
2022/02/05 15:16:59;;;;;;;8.98;1.45;;;10.50;67.40;;;;;;5062882;28;20099;-60
2022/02/05 15:19:25;;;;;;;5.25;1.50;;;10.30;68.20;;;;;;5066352;28;20031;-60
2022/02/05 15:21:50;;;;;;;6.95;1.52;;;10.40;68.30;;;;;;5068217;28;20017;-60
2022/02/05 15:24:16;;;;;;;4.43;1.08;;;10.60;68.30;;;;;;5069387;28;20046;-60
2022/02/05 15:26:42;;;;;;;11.68;1.90;;;10.60;68.20;;;;;;5072366;28;20100;-60
2022/02/05 15:29:10;;;;;;;8.27;1.40;;;10.60;68.40;;;;;;5072758;28;20111;-60
2022/02/05 15:31:40;;;;;;;5.90;1.40;;;10.70;68.50;;;;;;5072646;28;20477;-60
2022/02/05 15:34:07;;;;;;;12.45;2.33;;;10.70;68.00;;;;;;5072662;28;20037;-60
2022/02/05 15:39:15;;;;;;;5.63;1.15;;;10.60;68.80;;;;;;5072730;28;20021;-60
2022/02/05 15:44:25;;;;;;;7.22;1.88;;;10.50;68.80;;;;;;5083017;28;20034;-60
2022/02/05 15:46:51;;;;;;;4.20;1.38;;;10.40;69.40;;;;;;5079156;28;20025;-60
2022/02/05 15:49:16;;;;;;;7.40;1.80;;;10.20;69.50;;;;;;5071637;28;20039;-60
2022/02/05 15:51:42;;;;;;;7.60;1.95;;;10.00;70.10;;;;;;5071502;28;20435;-60
2022/02/05 15:54:10;;;;;;;10.75;2.72;;;9.80;71.00;;;;;;5071567;28;20020;-59
2022/02/05 15:56:56;;;;;;;6.18;1.85;;;9.60;71.90;;;;;;5071742;28;20488;-60